sensor_id;sensor_type;location;lat;lon;timestamp;P1;durP1;ratioP1;P2;durP2;ratioP2
10059;SDS011;5069;49.306;8.636;2023-04-28T00:02:52;4.63;;;2.80;;
10059;SDS011;5069;49.306;8.636;2023-04-28T00:05:54;4.07;;;2.83;;
10059;SDS011;5069;49.306;8.636;2023-04-28T00:08:56;5.57;;;2.90;;
10059;SDS011;5069;49.306;8.636;2023-04-28T00:11:57;6.27;;;2.90;;
10059;SDS011;5069;49.306;8.636;2023-04-28T00:14:59;4.93;;;2.80;;
10059;SDS011;5069;49.306;8.636;2023-04-28T00:18:01;4.90;;;3.30;;
10059;SDS011;5069;49.306;8.636;2023-04-28T00:21:02;7.40;;;3.37;;
10059;SDS011;5069;49.306;8.636;2023-04-28T00:24:04;4.70;;;3.43;;
10059;SDS011;5069;49.306;8.636;2023-04-28T00:27:06;7.00;;;3.57;;
10059;SDS011;5069;49.306;8.636;2023-04-28T00:30:08;5.23;;;3.50;;
10059;SDS011;5069;49.306;8.636;2023-04-28T00:33:10;6.97;;;3.37;;
10059;SDS011;5069;49.306;8.636;2023-04-28T00:36:11;6.07;;;3.90;;
10059;SDS011;5069;49.306;8.636;2023-04-28T00:39:13;5.33;;;3.43;;
10059;SDS011;5069;49.306;8.636;2023-04-28T00:42:16;6.50;;;3.50;;
10059;SDS011;5069;49.306;8.636;2023-04-28T00:45:17;6.00;;;3.30;;
10059;SDS011;5069;49.306;8.636;2023-04-28T00:48:18;5.77;;;3.37;;
10059;SDS011;5069;49.306;8.636;2023-04-28T00:51:21;6.13;;;3.43;;
10059;SDS011;5069;49.306;8.636;2023-04-28T00:54:22;6.63;;;4.30;;
10059;SDS011;5069;49.306;8.636;2023-04-28T00:57:24;5.80;;;4.23;;
10059;SDS011;5069;49.306;8.636;2023-04-28T01:00:25;3.90;;;3.50;;
10059;SDS011;5069;49.306;8.636;2023-04-28T01:03:27;6.07;;;3.83;;
10059;SDS011;5069;49.306;8.636;2023-04-28T01:06:29;6.03;;;3.90;;
10059;SDS011;5069;49.306;8.636;2023-04-28T01:09:34;4.73;;;4.20;;
10059;SDS011;5069;49.306;8.636;2023-04-28T01:12:36;4.37;;;3.70;;
10059;SDS011;5069;49.306;8.636;2023-04-28T01:15:38;4.63;;;3.60;;
10059;SDS011;5069;49.306;8.636;2023-04-28T01:18:41;6.17;;;3.93;;
10059;SDS011;5069;49.306;8.636;2023-04-28T01:21:48;7.90;;;3.83;;
10059;SDS011;5069;49.306;8.636;2023-04-28T01:24:54;4.27;;;3.57;;
10059;SDS011;5069;49.306;8.636;2023-04-28T01:27:56;4.63;;;3.53;;
10059;SDS011;5069;49.306;8.636;2023-04-28T01:30:58;6.00;;;4.10;;
10059;SDS011;5069;49.306;8.636;2023-04-28T01:34:00;5.13;;;3.50;;
10059;SDS011;5069;49.306;8.636;2023-04-28T01:37:02;4.87;;;3.30;;
10059;SDS011;5069;49.306;8.636;2023-04-28T01:40:03;5.00;;;3.77;;
10059;SDS011;5069;49.306;8.636;2023-04-28T01:43:05;7.23;;;4.10;;
10059;SDS011;5069;49.306;8.636;2023-04-28T01:46:07;9.17;;;4.17;;
10059;SDS011;5069;49.306;8.636;2023-04-28T01:49:08;5.90;;;3.80;;
10059;SDS011;5069;49.306;8.636;2023-04-28T01:52:10;5.23;;;3.83;;
10059;SDS011;5069;49.306;8.636;2023-04-28T01:55:12;5.97;;;3.70;;
10059;SDS011;5069;49.306;8.636;2023-04-28T01:58:13;8.57;;;4.20;;
10059;SDS011;5069;49.306;8.636;2023-04-28T02:01:15;5.27;;;4.20;;
10059;SDS011;5069;49.306;8.636;2023-04-28T02:04:17;7.00;;;4.30;;
10059;SDS011;5069;49.306;8.636;2023-04-28T02:07:19;8.60;;;4.17;;
10059;SDS011;5069;49.306;8.636;2023-04-28T02:10:21;7.63;;;6.07;;
10059;SDS011;5069;49.306;8.636;2023-04-28T02:13:22;6.07;;;4.50;;
10059;SDS011;5069;49.306;8.636;2023-04-28T02:16:24;8.10;;;4.20;;
10059;SDS011;5069;49.306;8.636;2023-04-28T02:19:25;6.87;;;4.43;;
10059;SDS011;5069;49.306;8.636;2023-04-28T02:22:27;10.57;;;4.60;;
10059;SDS011;5069;49.306;8.636;2023-04-28T02:25:28;8.07;;;4.63;;
10059;SDS011;5069;49.306;8.636;2023-04-28T02:28:30;5.47;;;4.43;;
10059;SDS011;5069;49.306;8.636;2023-04-28T02:31:32;9.10;;;5.50;;
10059;SDS011;5069;49.306;8.636;2023-04-28T02:34:34;4.93;;;4.43;;
10059;SDS011;5069;49.306;8.636;2023-04-28T02:37:35;5.93;;;4.40;;
10059;SDS011;5069;49.306;8.636;2023-04-28T02:40:37;6.07;;;4.23;;
10059;SDS011;5069;49.306;8.636;2023-04-28T02:43:38;5.33;;;4.60;;
10059;SDS011;5069;49.306;8.636;2023-04-28T02:46:40;5.50;;;4.50;;
10059;SDS011;5069;49.306;8.636;2023-04-28T02:49:41;6.60;;;4.33;;
10059;SDS011;5069;49.306;8.636;2023-04-28T02:52:43;6.23;;;4.60;;
10059;SDS011;5069;49.306;8.636;2023-04-28T02:55:44;5.47;;;4.37;;
10059;SDS011;5069;49.306;8.636;2023-04-28T02:58:46;7.20;;;5.00;;
10059;SDS011;5069;49.306;8.636;2023-04-28T03:01:48;4.90;;;4.27;;
10059;SDS011;5069;49.306;8.636;2023-04-28T03:04:50;6.30;;;4.70;;
10059;SDS011;5069;49.306;8.636;2023-04-28T03:07:52;6.77;;;4.63;;
10059;SDS011;5069;49.306;8.636;2023-04-28T03:10:54;7.03;;;5.00;;
10059;SDS011;5069;49.306;8.636;2023-04-28T03:13:55;6.10;;;5.10;;
10059;SDS011;5069;49.306;8.636;2023-04-28T03:16:57;8.03;;;4.90;;
10059;SDS011;5069;49.306;8.636;2023-04-28T03:19:59;6.73;;;5.20;;
10059;SDS011;5069;49.306;8.636;2023-04-28T03:23:00;6.17;;;4.70;;
10059;SDS011;5069;49.306;8.636;2023-04-28T03:26:03;7.07;;;4.90;;
10059;SDS011;5069;49.306;8.636;2023-04-28T03:29:04;8.40;;;4.80;;
10059;SDS011;5069;49.306;8.636;2023-04-28T03:32:06;5.97;;;4.40;;
10059;SDS011;5069;49.306;8.636;2023-04-28T03:35:08;6.20;;;4.37;;
10059;SDS011;5069;49.306;8.636;2023-04-28T03:38:10;7.50;;;4.57;;
10059;SDS011;5069;49.306;8.636;2023-04-28T03:41:12;6.07;;;4.50;;
10059;SDS011;5069;49.306;8.636;2023-04-28T03:44:42;7.10;;;4.90;;
10059;SDS011;5069;49.306;8.636;2023-04-28T03:47:44;6.07;;;4.70;;
10059;SDS011;5069;49.306;8.636;2023-04-28T03:50:45;5.50;;;4.70;;
10059;SDS011;5069;49.306;8.636;2023-04-28T03:53:47;7.17;;;5.17;;
10059;SDS011;5069;49.306;8.636;2023-04-28T03:56:49;6.50;;;4.30;;
10059;SDS011;5069;49.306;8.636;2023-04-28T03:59:50;6.83;;;4.83;;
10059;SDS011;5069;49.306;8.636;2023-04-28T04:02:52;7.07;;;5.20;;
10059;SDS011;5069;49.306;8.636;2023-04-28T04:05:54;5.70;;;4.70;;
10059;SDS011;5069;49.306;8.636;2023-04-28T04:08:56;8.03;;;4.90;;
10059;SDS011;5069;49.306;8.636;2023-04-28T04:11:58;9.30;;;5.17;;
10059;SDS011;5069;49.306;8.636;2023-04-28T04:15:01;8.93;;;5.43;;
10059;SDS011;5069;49.306;8.636;2023-04-28T04:18:03;6.33;;;5.73;;
10059;SDS011;5069;49.306;8.636;2023-04-28T04:21:20;9.53;;;5.67;;
10059;SDS011;5069;49.306;8.636;2023-04-28T04:24:24;8.37;;;5.17;;
10059;SDS011;5069;49.306;8.636;2023-04-28T04:27:25;9.87;;;5.43;;
10059;SDS011;5069;49.306;8.636;2023-04-28T04:30:27;8.80;;;5.63;;
10059;SDS011;5069;49.306;8.636;2023-04-28T04:33:29;6.53;;;5.50;;
10059;SDS011;5069;49.306;8.636;2023-04-28T04:36:30;6.50;;;5.40;;
10059;SDS011;5069;49.306;8.636;2023-04-28T04:39:33;7.77;;;5.67;;
10059;SDS011;5069;49.306;8.636;2023-04-28T04:42:35;5.70;;;4.63;;
10059;SDS011;5069;49.306;8.636;2023-04-28T04:45:39;7.67;;;5.20;;
10059;SDS011;5069;49.306;8.636;2023-04-28T04:48:41;5.67;;;5.07;;
10059;SDS011;5069;49.306;8.636;2023-04-28T04:51:43;7.33;;;5.77;;
10059;SDS011;5069;49.306;8.636;2023-04-28T04:54:45;7.07;;;5.20;;
10059;SDS011;5069;49.306;8.636;2023-04-28T04:57:48;7.27;;;5.20;;
10059;SDS011;5069;49.306;8.636;2023-04-28T05:01:04;8.27;;;5.40;;
10059;SDS011;5069;49.306;8.636;2023-04-28T05:04:06;6.43;;;4.97;;
10059;SDS011;5069;49.306;8.636;2023-04-28T05:07:09;6.77;;;5.70;;
10059;SDS011;5069;49.306;8.636;2023-04-28T05:10:13;8.50;;;5.70;;
10059;SDS011;5069;49.306;8.636;2023-04-28T05:13:16;6.63;;;5.63;;
10059;SDS011;5069;49.306;8.636;2023-04-28T05:16:18;7.70;;;5.80;;
10059;SDS011;5069;49.306;8.636;2023-04-28T05:19:36;7.20;;;5.07;;
10059;SDS011;5069;49.306;8.636;2023-04-28T05:22:37;6.73;;;5.70;;
10059;SDS011;5069;49.306;8.636;2023-04-28T05:25:39;6.73;;;5.33;;
10059;SDS011;5069;49.306;8.636;2023-04-28T05:28:41;8.83;;;5.67;;
10059;SDS011;5069;49.306;8.636;2023-04-28T05:31:42;7.47;;;5.93;;
10059;SDS011;5069;49.306;8.636;2023-04-28T05:34:44;7.17;;;5.43;;
10059;SDS011;5069;49.306;8.636;2023-04-28T05:37:46;5.83;;;5.23;;
10059;SDS011;5069;49.306;8.636;2023-04-28T05:40:47;7.93;;;5.50;;
10059;SDS011;5069;49.306;8.636;2023-04-28T05:43:50;7.73;;;5.57;;
10059;SDS011;5069;49.306;8.636;2023-04-28T05:46:52;8.50;;;5.50;;
10059;SDS011;5069;49.306;8.636;2023-04-28T05:49:58;8.03;;;6.10;;
10059;SDS011;5069;49.306;8.636;2023-04-28T05:53:00;9.07;;;5.80;;
10059;SDS011;5069;49.306;8.636;2023-04-28T05:56:04;7.57;;;5.97;;
10059;SDS011;5069;49.306;8.636;2023-04-28T05:59:06;8.57;;;6.43;;
10059;SDS011;5069;49.306;8.636;2023-04-28T06:02:09;7.17;;;5.57;;
10059;SDS011;5069;49.306;8.636;2023-04-28T06:05:11;9.53;;;6.10;;
10059;SDS011;5069;49.306;8.636;2023-04-28T06:08:13;7.67;;;5.83;;
10059;SDS011;5069;49.306;8.636;2023-04-28T06:11:14;8.97;;;7.10;;
10059;SDS011;5069;49.306;8.636;2023-04-28T06:14:16;8.23;;;6.17;;
10059;SDS011;5069;49.306;8.636;2023-04-28T06:17:18;6.80;;;6.10;;
10059;SDS011;5069;49.306;8.636;2023-04-28T06:20:19;8.00;;;6.00;;
10059;SDS011;5069;49.306;8.636;2023-04-28T06:23:21;9.50;;;6.40;;
10059;SDS011;5069;49.306;8.636;2023-04-28T06:26:23;9.90;;;6.63;;
10059;SDS011;5069;49.306;8.636;2023-04-28T06:29:25;8.90;;;6.33;;
10059;SDS011;5069;49.306;8.636;2023-04-28T06:32:27;8.50;;;6.57;;
10059;SDS011;5069;49.306;8.636;2023-04-28T06:35:29;7.33;;;6.17;;
10059;SDS011;5069;49.306;8.636;2023-04-28T06:38:31;9.90;;;6.67;;
10059;SDS011;5069;49.306;8.636;2023-04-28T06:41:32;9.30;;;6.40;;
10059;SDS011;5069;49.306;8.636;2023-04-28T06:44:36;8.50;;;6.73;;
10059;SDS011;5069;49.306;8.636;2023-04-28T06:47:37;8.50;;;6.63;;
10059;SDS011;5069;49.306;8.636;2023-04-28T06:50:42;8.33;;;6.27;;
10059;SDS011;5069;49.306;8.636;2023-04-28T06:53:44;8.37;;;6.87;;
10059;SDS011;5069;49.306;8.636;2023-04-28T06:56:46;9.80;;;6.80;;
10059;SDS011;5069;49.306;8.636;2023-04-28T06:59:47;8.40;;;7.43;;
10059;SDS011;5069;49.306;8.636;2023-04-28T07:02:49;7.80;;;6.60;;
10059;SDS011;5069;49.306;8.636;2023-04-28T07:05:51;11.00;;;7.83;;
10059;SDS011;5069;49.306;8.636;2023-04-28T07:08:52;8.20;;;7.10;;
10059;SDS011;5069;49.306;8.636;2023-04-28T07:11:54;9.90;;;7.33;;
10059;SDS011;5069;49.306;8.636;2023-04-28T07:14:56;13.43;;;8.17;;
10059;SDS011;5069;49.306;8.636;2023-04-28T07:17:57;8.60;;;7.47;;
10059;SDS011;5069;49.306;8.636;2023-04-28T07:20:58;10.13;;;7.53;;
10059;SDS011;5069;49.306;8.636;2023-04-28T07:24:00;14.30;;;8.00;;
10059;SDS011;5069;49.306;8.636;2023-04-28T07:27:01;10.83;;;8.53;;
10059;SDS011;5069;49.306;8.636;2023-04-28T07:30:04;9.30;;;8.20;;
10059;SDS011;5069;49.306;8.636;2023-04-28T07:33:25;8.57;;;6.60;;
10059;SDS011;5069;49.306;8.636;2023-04-28T07:36:28;8.17;;;7.20;;
10059;SDS011;5069;49.306;8.636;2023-04-28T07:39:32;8.60;;;6.83;;
10059;SDS011;5069;49.306;8.636;2023-04-28T07:42:35;8.03;;;7.23;;
10059;SDS011;5069;49.306;8.636;2023-04-28T07:45:37;7.20;;;6.60;;
10059;SDS011;5069;49.306;8.636;2023-04-28T07:48:40;7.03;;;6.33;;
10059;SDS011;5069;49.306;8.636;2023-04-28T07:51:41;8.30;;;6.77;;
10059;SDS011;5069;49.306;8.636;2023-04-28T07:54:43;8.07;;;6.90;;
10059;SDS011;5069;49.306;8.636;2023-04-28T07:57:44;7.80;;;7.00;;
10059;SDS011;5069;49.306;8.636;2023-04-28T08:00:46;8.50;;;7.00;;
10059;SDS011;5069;49.306;8.636;2023-04-28T08:03:47;7.80;;;7.00;;
10059;SDS011;5069;49.306;8.636;2023-04-28T08:06:49;8.33;;;7.43;;
10059;SDS011;5069;49.306;8.636;2023-04-28T08:09:50;8.70;;;7.17;;
10059;SDS011;5069;49.306;8.636;2023-04-28T08:12:54;8.27;;;7.33;;
10059;SDS011;5069;49.306;8.636;2023-04-28T08:15:55;7.53;;;6.73;;
10059;SDS011;5069;49.306;8.636;2023-04-28T08:18:57;8.43;;;7.30;;
10059;SDS011;5069;49.306;8.636;2023-04-28T08:21:59;10.30;;;7.60;;
10059;SDS011;5069;49.306;8.636;2023-04-28T08:25:05;7.77;;;6.50;;
10059;SDS011;5069;49.306;8.636;2023-04-28T08:28:07;9.63;;;6.93;;
10059;SDS011;5069;49.306;8.636;2023-04-28T08:31:09;7.97;;;7.17;;
10059;SDS011;5069;49.306;8.636;2023-04-28T08:34:10;8.77;;;7.40;;
10059;SDS011;5069;49.306;8.636;2023-04-28T08:37:13;10.13;;;7.33;;
10059;SDS011;5069;49.306;8.636;2023-04-28T08:40:15;8.47;;;7.63;;
10059;SDS011;5069;49.306;8.636;2023-04-28T08:43:16;9.33;;;6.80;;
10059;SDS011;5069;49.306;8.636;2023-04-28T08:46:18;9.23;;;7.30;;
10059;SDS011;5069;49.306;8.636;2023-04-28T08:49:22;8.37;;;7.03;;
10059;SDS011;5069;49.306;8.636;2023-04-28T08:52:33;8.00;;;7.20;;
10059;SDS011;5069;49.306;8.636;2023-04-28T08:55:35;7.67;;;6.87;;
10059;SDS011;5069;49.306;8.636;2023-04-28T08:58:38;11.67;;;7.63;;
10059;SDS011;5069;49.306;8.636;2023-04-28T09:01:40;8.13;;;6.87;;
10059;SDS011;5069;49.306;8.636;2023-04-28T09:04:41;9.03;;;6.33;;
10059;SDS011;5069;49.306;8.636;2023-04-28T09:07:46;7.23;;;5.70;;
10059;SDS011;5069;49.306;8.636;2023-04-28T09:11:06;8.13;;;5.87;;
10059;SDS011;5069;49.306;8.636;2023-04-28T09:14:11;6.23;;;5.60;;
10059;SDS011;5069;49.306;8.636;2023-04-28T09:17:13;5.87;;;5.37;;
10059;SDS011;5069;49.306;8.636;2023-04-28T09:20:23;5.97;;;4.67;;
10059;SDS011;5069;49.306;8.636;2023-04-28T09:23:26;5.40;;;4.90;;
10059;SDS011;5069;49.306;8.636;2023-04-28T09:26:27;5.80;;;4.90;;
10059;SDS011;5069;49.306;8.636;2023-04-28T09:29:50;5.13;;;4.53;;
10059;SDS011;5069;49.306;8.636;2023-04-28T09:33:05;6.50;;;5.00;;
10059;SDS011;5069;49.306;8.636;2023-04-28T09:36:11;6.20;;;5.60;;
10059;SDS011;5069;49.306;8.636;2023-04-28T09:39:13;6.63;;;5.40;;
10059;SDS011;5069;49.306;8.636;2023-04-28T09:42:30;7.40;;;6.37;;
10059;SDS011;5069;49.306;8.636;2023-04-28T09:45:41;7.30;;;6.33;;
10059;SDS011;5069;49.306;8.636;2023-04-28T09:48:44;8.97;;;6.10;;
10059;SDS011;5069;49.306;8.636;2023-04-28T09:51:46;7.07;;;6.47;;
10059;SDS011;5069;49.306;8.636;2023-04-28T09:54:48;9.27;;;6.53;;
10059;SDS011;5069;49.306;8.636;2023-04-28T09:57:52;7.27;;;6.57;;
10059;SDS011;5069;49.306;8.636;2023-04-28T10:00:55;7.37;;;6.67;;
10059;SDS011;5069;49.306;8.636;2023-04-28T10:03:59;10.57;;;7.67;;
10059;SDS011;5069;49.306;8.636;2023-04-28T10:07:03;7.10;;;6.50;;
10059;SDS011;5069;49.306;8.636;2023-04-28T10:10:04;6.60;;;5.90;;
10059;SDS011;5069;49.306;8.636;2023-04-28T10:13:07;7.00;;;6.40;;
10059;SDS011;5069;49.306;8.636;2023-04-28T10:16:09;6.90;;;6.30;;
10059;SDS011;5069;49.306;8.636;2023-04-28T10:19:11;7.17;;;6.27;;
10059;SDS011;5069;49.306;8.636;2023-04-28T10:22:32;6.70;;;6.10;;
10059;SDS011;5069;49.306;8.636;2023-04-28T10:25:56;6.07;;;4.97;;
10059;SDS011;5069;49.306;8.636;2023-04-28T10:28:59;5.53;;;4.77;;
10059;SDS011;5069;49.306;8.636;2023-04-28T10:32:20;6.37;;;4.80;;
10059;SDS011;5069;49.306;8.636;2023-04-28T10:38:30;6.67;;;4.80;;
10059;SDS011;5069;49.306;8.636;2023-04-28T10:41:32;6.23;;;4.97;;
10059;SDS011;5069;49.306;8.636;2023-04-28T10:54:09;5.13;;;4.40;;
10059;SDS011;5069;49.306;8.636;2023-04-28T10:57:15;5.63;;;5.13;;
10059;SDS011;5069;49.306;8.636;2023-04-28T11:00:30;8.10;;;5.27;;
10059;SDS011;5069;49.306;8.636;2023-04-28T11:03:38;5.80;;;4.87;;
10059;SDS011;5069;49.306;8.636;2023-04-28T11:07:09;6.53;;;5.10;;
10059;SDS011;5069;49.306;8.636;2023-04-28T11:10:12;9.40;;;5.30;;
10059;SDS011;5069;49.306;8.636;2023-04-28T11:13:26;6.30;;;5.70;;
10059;SDS011;5069;49.306;8.636;2023-04-28T11:16:31;6.70;;;5.73;;
10059;SDS011;5069;49.306;8.636;2023-04-28T11:19:35;5.90;;;5.40;;
10059;SDS011;5069;49.306;8.636;2023-04-28T11:22:39;5.43;;;4.93;;
10059;SDS011;5069;49.306;8.636;2023-04-28T11:25:53;7.20;;;5.20;;
10059;SDS011;5069;49.306;8.636;2023-04-28T11:28:56;5.73;;;5.20;;
10059;SDS011;5069;49.306;8.636;2023-04-28T11:31:58;5.93;;;5.33;;
10059;SDS011;5069;49.306;8.636;2023-04-28T11:35:00;6.17;;;5.33;;
10059;SDS011;5069;49.306;8.636;2023-04-28T11:38:02;5.73;;;5.17;;
10059;SDS011;5069;49.306;8.636;2023-04-28T11:41:06;6.90;;;4.50;;
10059;SDS011;5069;49.306;8.636;2023-04-28T11:44:26;5.33;;;4.57;;
10059;SDS011;5069;49.306;8.636;2023-04-28T11:47:30;9.00;;;4.57;;
10059;SDS011;5069;49.306;8.636;2023-04-28T11:50:36;4.57;;;4.13;;
10059;SDS011;5069;49.306;8.636;2023-04-28T11:53:41;6.67;;;4.70;;
10059;SDS011;5069;49.306;8.636;2023-04-28T11:56:46;5.13;;;4.23;;
10059;SDS011;5069;49.306;8.636;2023-04-28T11:59:48;5.07;;;4.40;;
10059;SDS011;5069;49.306;8.636;2023-04-28T12:02:51;5.40;;;4.00;;
10059;SDS011;5069;49.306;8.636;2023-04-28T12:05:53;4.67;;;3.50;;
10059;SDS011;5069;49.306;8.636;2023-04-28T12:08:54;3.87;;;3.57;;
10059;SDS011;5069;49.306;8.636;2023-04-28T12:11:58;4.43;;;3.80;;
10059;SDS011;5069;49.306;8.636;2023-04-28T12:15:05;3.67;;;3.37;;
10059;SDS011;5069;49.306;8.636;2023-04-28T12:18:08;5.53;;;3.40;;
10059;SDS011;5069;49.306;8.636;2023-04-28T12:21:19;3.87;;;3.57;;
10059;SDS011;5069;49.306;8.636;2023-04-28T12:24:21;4.80;;;3.37;;
10059;SDS011;5069;49.306;8.636;2023-04-28T12:27:24;4.27;;;3.07;;
10059;SDS011;5069;49.306;8.636;2023-04-28T12:30:27;2.97;;;2.67;;
10059;SDS011;5069;49.306;8.636;2023-04-28T12:33:29;3.27;;;2.97;;
10059;SDS011;5069;49.306;8.636;2023-04-28T12:36:31;3.10;;;2.80;;
10059;SDS011;5069;49.306;8.636;2023-04-28T12:39:33;4.97;;;3.30;;
10059;SDS011;5069;49.306;8.636;2023-04-28T12:42:40;4.13;;;3.73;;
10059;SDS011;5069;49.306;8.636;2023-04-28T12:45:42;3.93;;;3.60;;
10059;SDS011;5069;49.306;8.636;2023-04-28T12:48:44;4.87;;;4.40;;
10059;SDS011;5069;49.306;8.636;2023-04-28T12:51:45;4.90;;;4.40;;
10059;SDS011;5069;49.306;8.636;2023-04-28T12:54:47;6.50;;;5.07;;
10059;SDS011;5069;49.306;8.636;2023-04-28T12:57:49;5.00;;;4.60;;
10059;SDS011;5069;49.306;8.636;2023-04-28T13:00:50;5.07;;;4.63;;
10059;SDS011;5069;49.306;8.636;2023-04-28T13:03:51;6.50;;;4.70;;
10059;SDS011;5069;49.306;8.636;2023-04-28T13:06:54;5.23;;;4.73;;
10059;SDS011;5069;49.306;8.636;2023-04-28T13:09:55;5.50;;;4.97;;
10059;SDS011;5069;49.306;8.636;2023-04-28T13:12:56;7.63;;;4.67;;
10059;SDS011;5069;49.306;8.636;2023-04-28T13:15:58;4.80;;;4.30;;
10059;SDS011;5069;49.306;8.636;2023-04-28T13:19:00;5.27;;;4.07;;
10059;SDS011;5069;49.306;8.636;2023-04-28T13:22:03;4.50;;;4.10;;
10059;SDS011;5069;49.306;8.636;2023-04-28T13:25:06;5.30;;;3.87;;
10059;SDS011;5069;49.306;8.636;2023-04-28T13:28:09;4.47;;;3.80;;
10059;SDS011;5069;49.306;8.636;2023-04-28T13:31:10;4.57;;;3.80;;
10059;SDS011;5069;49.306;8.636;2023-04-28T13:34:11;4.80;;;3.93;;
10059;SDS011;5069;49.306;8.636;2023-04-28T13:37:17;3.80;;;3.50;;
10059;SDS011;5069;49.306;8.636;2023-04-28T13:40:19;3.43;;;3.13;;
10059;SDS011;5069;49.306;8.636;2023-04-28T13:43:20;3.97;;;3.20;;
10059;SDS011;5069;49.306;8.636;2023-04-28T13:46:21;4.93;;;3.30;;
10059;SDS011;5069;49.306;8.636;2023-04-28T13:49:23;3.40;;;2.70;;
10059;SDS011;5069;49.306;8.636;2023-04-28T13:52:25;6.90;;;2.70;;
10059;SDS011;5069;49.306;8.636;2023-04-28T13:55:27;2.77;;;2.50;;
10059;SDS011;5069;49.306;8.636;2023-04-28T13:58:28;2.03;;;1.83;;
10059;SDS011;5069;49.306;8.636;2023-04-28T14:01:30;4.27;;;2.17;;
10059;SDS011;5069;49.306;8.636;2023-04-28T14:04:32;2.83;;;2.53;;
10059;SDS011;5069;49.306;8.636;2023-04-28T14:07:34;4.90;;;3.20;;
10059;SDS011;5069;49.306;8.636;2023-04-28T14:10:35;3.80;;;3.40;;
10059;SDS011;5069;49.306;8.636;2023-04-28T14:13:37;4.20;;;3.63;;
10059;SDS011;5069;49.306;8.636;2023-04-28T14:16:38;5.40;;;3.20;;
10059;SDS011;5069;49.306;8.636;2023-04-28T14:19:40;6.30;;;3.53;;
10059;SDS011;5069;49.306;8.636;2023-04-28T14:22:42;5.37;;;3.50;;
10059;SDS011;5069;49.306;8.636;2023-04-28T14:25:44;3.80;;;3.27;;
10059;SDS011;5069;49.306;8.636;2023-04-28T14:28:45;6.77;;;3.20;;
10059;SDS011;5069;49.306;8.636;2023-04-28T14:31:47;4.00;;;3.10;;
10059;SDS011;5069;49.306;8.636;2023-04-28T14:34:49;3.13;;;2.70;;
10059;SDS011;5069;49.306;8.636;2023-04-28T14:37:51;3.27;;;2.40;;
10059;SDS011;5069;49.306;8.636;2023-04-28T14:40:53;2.93;;;2.60;;
10059;SDS011;5069;49.306;8.636;2023-04-28T14:43:54;5.70;;;2.90;;
10059;SDS011;5069;49.306;8.636;2023-04-28T14:46:56;3.53;;;2.43;;
10059;SDS011;5069;49.306;8.636;2023-04-28T14:49:58;2.53;;;2.07;;
10059;SDS011;5069;49.306;8.636;2023-04-28T14:53:00;4.63;;;2.93;;
10059;SDS011;5069;49.306;8.636;2023-04-28T14:56:05;6.03;;;2.60;;
10059;SDS011;5069;49.306;8.636;2023-04-28T14:59:18;4.27;;;3.13;;
10059;SDS011;5069;49.306;8.636;2023-04-28T15:02:20;4.97;;;2.90;;
10059;SDS011;5069;49.306;8.636;2023-04-28T15:05:28;5.23;;;3.43;;
10059;SDS011;5069;49.306;8.636;2023-04-28T15:08:31;5.07;;;2.60;;
10059;SDS011;5069;49.306;8.636;2023-04-28T15:11:33;2.93;;;2.63;;
10059;SDS011;5069;49.306;8.636;2023-04-28T15:14:34;2.90;;;2.60;;
10059;SDS011;5069;49.306;8.636;2023-04-28T15:17:36;3.10;;;2.80;;
10059;SDS011;5069;49.306;8.636;2023-04-28T15:20:38;5.33;;;3.00;;
10059;SDS011;5069;49.306;8.636;2023-04-28T15:23:39;2.43;;;1.83;;
10059;SDS011;5069;49.306;8.636;2023-04-28T15:26:41;1.77;;;1.00;;
10059;SDS011;5069;49.306;8.636;2023-04-28T15:29:42;3.53;;;1.50;;
10059;SDS011;5069;49.306;8.636;2023-04-28T15:32:44;3.20;;;0.97;;
10059;SDS011;5069;49.306;8.636;2023-04-28T15:35:45;2.43;;;0.93;;
10059;SDS011;5069;49.306;8.636;2023-04-28T15:38:47;3.37;;;1.00;;
10059;SDS011;5069;49.306;8.636;2023-04-28T15:41:50;1.40;;;0.93;;
10059;SDS011;5069;49.306;8.636;2023-04-28T15:44:52;6.83;;;0.73;;
10059;SDS011;5069;49.306;8.636;2023-04-28T15:47:54;1.97;;;0.70;;
10059;SDS011;5069;49.306;8.636;2023-04-28T15:50:55;0.57;;;0.57;;
10059;SDS011;5069;49.306;8.636;2023-04-28T15:53:57;1.17;;;0.70;;
10059;SDS011;5069;49.306;8.636;2023-04-28T15:57:00;4.17;;;1.00;;
10059;SDS011;5069;49.306;8.636;2023-04-28T16:00:03;2.67;;;2.00;;
10059;SDS011;5069;49.306;8.636;2023-04-28T16:03:08;2.57;;;2.10;;
10059;SDS011;5069;49.306;8.636;2023-04-28T16:06:09;2.03;;;1.70;;
10059;SDS011;5069;49.306;8.636;2023-04-28T16:09:11;2.43;;;1.50;;
10059;SDS011;5069;49.306;8.636;2023-04-28T16:12:13;1.33;;;1.20;;
10059;SDS011;5069;49.306;8.636;2023-04-28T16:15:15;1.13;;;1.00;;
10059;SDS011;5069;49.306;8.636;2023-04-28T16:18:17;2.50;;;1.43;;
10059;SDS011;5069;49.306;8.636;2023-04-28T16:21:18;2.10;;;1.70;;
10059;SDS011;5069;49.306;8.636;2023-04-28T16:24:20;1.77;;;1.50;;
10059;SDS011;5069;49.306;8.636;2023-04-28T16:27:22;3.10;;;1.60;;
10059;SDS011;5069;49.306;8.636;2023-04-28T16:30:24;1.70;;;1.30;;
10059;SDS011;5069;49.306;8.636;2023-04-28T16:33:25;1.80;;;1.00;;
10059;SDS011;5069;49.306;8.636;2023-04-28T16:36:30;0.90;;;0.80;;
10059;SDS011;5069;49.306;8.636;2023-04-28T16:39:35;0.67;;;0.67;;
10059;SDS011;5069;49.306;8.636;2023-04-28T16:42:37;1.60;;;0.90;;
10059;SDS011;5069;49.306;8.636;2023-04-28T16:45:39;2.43;;;1.10;;
10059;SDS011;5069;49.306;8.636;2023-04-28T16:48:40;0.97;;;0.87;;
10059;SDS011;5069;49.306;8.636;2023-04-28T16:51:53;0.97;;;0.87;;
10059;SDS011;5069;49.306;8.636;2023-04-28T16:54:55;1.00;;;0.80;;
10059;SDS011;5069;49.306;8.636;2023-04-28T16:57:57;1.30;;;1.20;;
10059;SDS011;5069;49.306;8.636;2023-04-28T17:00:58;2.50;;;1.50;;
10059;SDS011;5069;49.306;8.636;2023-04-28T17:04:00;1.70;;;1.40;;
10059;SDS011;5069;49.306;8.636;2023-04-28T17:07:03;2.47;;;1.40;;
10059;SDS011;5069;49.306;8.636;2023-04-28T17:10:05;2.93;;;1.20;;
10059;SDS011;5069;49.306;8.636;2023-04-28T17:13:07;3.23;;;1.23;;
10059;SDS011;5069;49.306;8.636;2023-04-28T17:16:11;1.70;;;1.37;;
10059;SDS011;5069;49.306;8.636;2023-04-28T17:19:13;3.87;;;1.43;;
10059;SDS011;5069;49.306;8.636;2023-04-28T17:22:14;2.73;;;1.60;;
10059;SDS011;5069;49.306;8.636;2023-04-28T17:25:16;2.47;;;1.47;;
10059;SDS011;5069;49.306;8.636;2023-04-28T17:28:18;2.83;;;1.50;;
10059;SDS011;5069;49.306;8.636;2023-04-28T17:31:22;2.73;;;1.90;;
10059;SDS011;5069;49.306;8.636;2023-04-28T17:34:25;2.03;;;1.50;;
10059;SDS011;5069;49.306;8.636;2023-04-28T17:37:26;3.07;;;1.60;;
10059;SDS011;5069;49.306;8.636;2023-04-28T17:40:30;1.63;;;1.53;;
10059;SDS011;5069;49.306;8.636;2023-04-28T17:43:31;2.67;;;1.70;;
10059;SDS011;5069;49.306;8.636;2023-04-28T17:46:33;1.77;;;1.67;;
10059;SDS011;5069;49.306;8.636;2023-04-28T17:49:36;2.03;;;1.90;;
10059;SDS011;5069;49.306;8.636;2023-04-28T17:52:39;1.77;;;1.67;;
10059;SDS011;5069;49.306;8.636;2023-04-28T17:55:44;2.30;;;1.90;;
10059;SDS011;5069;49.306;8.636;2023-04-28T17:58:45;2.00;;;1.80;;
10059;SDS011;5069;49.306;8.636;2023-04-28T18:01:47;1.97;;;1.80;;
10059;SDS011;5069;49.306;8.636;2023-04-28T18:04:48;3.57;;;1.93;;
10059;SDS011;5069;49.306;8.636;2023-04-28T18:07:51;2.60;;;2.40;;
10059;SDS011;5069;49.306;8.636;2023-04-28T18:10:53;2.43;;;2.00;;
10059;SDS011;5069;49.306;8.636;2023-04-28T18:13:56;2.77;;;2.30;;
10059;SDS011;5069;49.306;8.636;2023-04-28T18:16:58;3.13;;;2.20;;
10059;SDS011;5069;49.306;8.636;2023-04-28T18:20:00;2.90;;;2.23;;
10059;SDS011;5069;49.306;8.636;2023-04-28T18:23:02;4.77;;;2.27;;
10059;SDS011;5069;49.306;8.636;2023-04-28T18:26:03;6.70;;;2.17;;
10059;SDS011;5069;49.306;8.636;2023-04-28T18:29:05;2.27;;;2.07;;
10059;SDS011;5069;49.306;8.636;2023-04-28T18:32:08;2.87;;;2.20;;
10059;SDS011;5069;49.306;8.636;2023-04-28T18:35:12;2.70;;;2.47;;
10059;SDS011;5069;49.306;8.636;2023-04-28T18:38:15;4.20;;;2.40;;
10059;SDS011;5069;49.306;8.636;2023-04-28T18:41:16;3.67;;;2.27;;
10059;SDS011;5069;49.306;8.636;2023-04-28T18:44:18;3.00;;;2.17;;
10059;SDS011;5069;49.306;8.636;2023-04-28T18:47:19;4.47;;;2.57;;
10059;SDS011;5069;49.306;8.636;2023-04-28T18:50:21;5.40;;;2.10;;
10059;SDS011;5069;49.306;8.636;2023-04-28T18:53:23;3.27;;;2.27;;